Terminal Aerodrome Forecast
Issued by NWS

Home | Current Version | Previous Version | Text Only | Print | Product List | Glossary On
Versions: 1 2 3 4 5 6 7 8 9 10 11 12 13 14 15 16 17
583
FTUS46 KSGX 272320
TAFCRQ
TAF
KCRQ 272320Z 2800/2824 24008KT P6SM SCT200
     FM280100 VRB04KT P6SM FEW010
     FM280900 VRB03KT P6SM BKN008
     FM281530 VRB04KT P6SM FEW009
     FM281900 26008KT P6SM SCT200=

USA.gov is the U.S. government's official web portal to all federal, state and local government web resources and services.